sensor_id;sensor_type;location;lat;lon;timestamp;pressure;altitude;pressure_sealevel;temperature;humidity
57779;BME280;43608;49.486;9.640;2022-11-20T00:00:05;98215.94;;;0.59;95.29
57779;BME280;43608;49.486;9.640;2022-11-20T00:00:36;98235.31;;;0.69;95.66
57779;BME280;43608;49.486;9.640;2022-11-20T00:01:07;98237.94;;;0.69;95.32
57779;BME280;43608;49.486;9.640;2022-11-20T00:01:37;98216.03;;;0.62;95.49
57779;BME280;43608;49.486;9.640;2022-11-20T00:02:08;98218.69;;;0.65;95.67
57779;BME280;43608;49.486;9.640;2022-11-20T00:02:38;98227.44;;;0.65;95.54
57779;BME280;43608;49.486;9.640;2022-11-20T00:03:08;98203.56;;;0.52;95.59
57779;BME280;43608;49.486;9.640;2022-11-20T00:03:39;98230.09;;;0.69;95.51
57779;BME280;43608;49.486;9.640;2022-11-20T00:04:10;98203.53;;;0.50;95.05
57779;BME280;43608;49.486;9.640;2022-11-20T00:04:41;98223.88;;;0.63;95.40
57779;BME280;43608;49.486;9.640;2022-11-20T00:05:12;98223.09;;;0.66;95.66
57779;BME280;43608;49.486;9.640;2022-11-20T00:05:42;98220.38;;;0.61;95.61
57779;BME280;43608;49.486;9.640;2022-11-20T00:06:15;98221.25;;;0.62;95.29
57779;BME280;43608;49.486;9.640;2022-11-20T00:06:46;98208.88;;;0.55;95.34
57779;BME280;43608;49.486;9.640;2022-11-20T00:07:16;98196.53;;;0.49;95.66
57779;BME280;43608;49.486;9.640;2022-11-20T00:07:47;98220.41;;;0.63;95.53
57779;BME280;43608;49.486;9.640;2022-11-20T00:08:17;98203.56;;;0.52;95.85
57779;BME280;43608;49.486;9.640;2022-11-20T00:08:48;98211.56;;;0.58;95.69
57779;BME280;43608;49.486;9.640;2022-11-20T00:09:19;98215.16;;;0.61;95.84
57779;BME280;43608;49.486;9.640;2022-11-20T00:09:49;98222.25;;;0.67;95.52
57779;BME280;43608;49.486;9.640;2022-11-20T00:10:19;98218.66;;;0.63;95.68
57779;BME280;43608;49.486;9.640;2022-11-20T00:10:50;98209.03;;;0.61;95.31
57779;BME280;43608;49.486;9.640;2022-11-20T00:11:22;98224.84;;;0.67;95.58
57779;BME280;43608;49.486;9.640;2022-11-20T00:11:52;98199.28;;;0.54;95.87
57779;BME280;43608;49.486;9.640;2022-11-20T00:12:22;98217.91;;;0.68;95.96
57779;BME280;43608;49.486;9.640;2022-11-20T00:12:53;98204.72;;;0.61;95.99
57779;BME280;43608;49.486;9.640;2022-11-20T00:13:23;98213.44;;;0.63;95.44
57779;BME280;43608;49.486;9.640;2022-11-20T00:13:56;98220.59;;;0.69;95.58
57779;BME280;43608;49.486;9.640;2022-11-20T00:14:29;98217.91;;;0.68;95.75
57779;BME280;43608;49.486;9.640;2022-11-20T00:15:00;98204.72;;;0.61;95.80
57779;BME280;43608;49.486;9.640;2022-11-20T00:15:30;98212.66;;;0.66;95.62
57779;BME280;43608;49.486;9.640;2022-11-20T00:16:02;98220.63;;;0.71;95.96
57779;BME280;43608;49.486;9.640;2022-11-20T00:16:33;98211.78;;;0.65;95.76
57779;BME280;43608;49.486;9.640;2022-11-20T00:17:03;98215.25;;;0.66;95.74
57779;BME280;43608;49.486;9.640;2022-11-20T00:17:34;98201.06;;;0.55;95.68
57779;BME280;43608;49.486;9.640;2022-11-20T00:18:04;98219.69;;;0.69;95.57
57779;BME280;43608;49.486;9.640;2022-11-20T00:18:35;98213.56;;;0.67;95.52
57779;BME280;43608;49.486;9.640;2022-11-20T00:19:05;98213.47;;;0.65;95.56
57779;BME280;43608;49.486;9.640;2022-11-20T00:19:36;98215.28;;;0.68;95.32
57779;BME280;43608;49.486;9.640;2022-11-20T00:20:07;98210.88;;;0.65;95.89
57779;BME280;43608;49.486;9.640;2022-11-20T00:20:38;98225.78;;;0.69;95.82
57779;BME280;43608;49.486;9.640;2022-11-20T00:21:19;98197.75;;;0.62;95.71
57779;BME280;43608;49.486;9.640;2022-11-20T00:21:50;98214.44;;;0.67;95.60
57779;BME280;43608;49.486;9.640;2022-11-20T00:22:25;98219.72;;;0.70;95.41
57779;BME280;43608;49.486;9.640;2022-11-20T00:22:55;98206.44;;;0.61;95.50
57779;BME280;43608;49.486;9.640;2022-11-20T00:23:26;98217.91;;;0.68;95.72
57779;BME280;43608;49.486;9.640;2022-11-20T00:23:57;98194.94;;;0.54;95.73
57779;BME280;43608;49.486;9.640;2022-11-20T00:24:27;98222.28;;;0.69;95.76
57779;BME280;43608;49.486;9.640;2022-11-20T00:24:57;98187.97;;;0.53;95.35
57779;BME280;43608;49.486;9.640;2022-11-20T00:25:28;98210.88;;;0.65;95.38
57779;BME280;43608;49.486;9.640;2022-11-20T00:26:06;98222.38;;;0.72;95.38
57779;BME280;43608;49.486;9.640;2022-11-20T00:26:36;98204.63;;;0.58;95.69
57779;BME280;43608;49.486;9.640;2022-11-20T00:27:07;98217.03;;;0.67;95.68
57779;BME280;43608;49.486;9.640;2022-11-20T00:27:37;98203.78;;;0.59;95.58
57779;BME280;43608;49.486;9.640;2022-11-20T00:28:07;98209.13;;;0.64;95.40
57779;BME280;43608;49.486;9.640;2022-11-20T00:28:38;98219.72;;;0.70;95.23
57779;BME280;43608;49.486;9.640;2022-11-20T00:29:08;98206.53;;;0.64;95.35
57779;BME280;43608;49.486;9.640;2022-11-20T00:29:39;98214.44;;;0.67;95.62
57779;BME280;43608;49.486;9.640;2022-11-20T00:30:10;98204.72;;;0.61;95.50
57779;BME280;43608;49.486;9.640;2022-11-20T00:30:40;98199.38;;;0.57;95.23
57779;BME280;43608;49.486;9.640;2022-11-20T00:31:15;98213.59;;;0.68;95.68
57779;BME280;43608;49.486;9.640;2022-11-20T00:31:45;98216.06;;;0.63;95.30
57779;BME280;43608;49.486;9.640;2022-11-20T00:32:15;98211.78;;;0.65;95.83
57779;BME280;43608;49.486;9.640;2022-11-20T00:32:46;98219.63;;;0.67;95.61
57779;BME280;43608;49.486;9.640;2022-11-20T00:33:16;98192.28;;;0.51;95.34
57779;BME280;43608;49.486;9.640;2022-11-20T00:33:47;98220.59;;;0.69;95.84
57779;BME280;43608;49.486;9.640;2022-11-20T00:34:17;98194.94;;;0.54;95.89
57779;BME280;43608;49.486;9.640;2022-11-20T00:34:47;98211.75;;;0.64;95.49
57779;BME280;43608;49.486;9.640;2022-11-20T00:35:18;98210.00;;;0.64;95.42
57779;BME280;43608;49.486;9.640;2022-11-20T00:35:48;98212.59;;;0.63;95.70
57779;BME280;43608;49.486;9.640;2022-11-20T00:36:20;98224.03;;;0.68;95.85
57779;BME280;43608;49.486;9.640;2022-11-20T00:36:51;98206.38;;;0.59;95.48
57779;BME280;43608;49.486;9.640;2022-11-20T00:37:21;98159.50;;;0.29;95.76
57779;BME280;43608;49.486;9.640;2022-11-20T00:37:52;98208.16;;;0.60;95.53
57779;BME280;43608;49.486;9.640;2022-11-20T00:38:22;98215.22;;;0.64;95.84
57779;BME280;43608;49.486;9.640;2022-11-20T00:38:54;98223.13;;;0.68;95.90
57779;BME280;43608;49.486;9.640;2022-11-20T00:39:25;98213.44;;;0.63;95.83
57779;BME280;43608;49.486;9.640;2022-11-20T00:39:55;98198.47;;;0.55;95.54
57779;BME280;43608;49.486;9.640;2022-11-20T00:40:26;98203.75;;;0.58;95.62
57779;BME280;43608;49.486;9.640;2022-11-20T00:41:01;98214.44;;;0.67;95.46
57779;BME280;43608;49.486;9.640;2022-11-20T00:41:32;98197.59;;;0.56;95.80
57779;BME280;43608;49.486;9.640;2022-11-20T00:42:02;98205.59;;;0.62;95.48
57779;BME280;43608;49.486;9.640;2022-11-20T00:42:33;98210.00;;;0.64;95.58
57779;BME280;43608;49.486;9.640;2022-11-20T00:43:04;98209.06;;;0.62;95.98
57779;BME280;43608;49.486;9.640;2022-11-20T00:43:34;98193.16;;;0.53;95.86
57779;BME280;43608;49.486;9.640;2022-11-20T00:44:04;98193.25;;;0.55;95.97
57779;BME280;43608;49.486;9.640;2022-11-20T00:44:35;98202.13;;;0.61;95.61
57779;BME280;43608;49.486;9.640;2022-11-20T00:45:05;98202.13;;;0.61;95.82
57779;BME280;43608;49.486;9.640;2022-11-20T00:45:36;98204.72;;;0.61;95.93
57779;BME280;43608;49.486;9.640;2022-11-20T00:46:17;98213.56;;;0.67;95.80
57779;BME280;43608;49.486;9.640;2022-11-20T00:46:48;98206.38;;;0.59;96.07
57779;BME280;43608;49.486;9.640;2022-11-20T00:47:18;98206.34;;;0.58;96.28
57779;BME280;43608;49.486;9.640;2022-11-20T00:47:49;98197.69;;;0.59;95.98
57779;BME280;43608;49.486;9.640;2022-11-20T00:48:19;98204.72;;;0.61;95.91
57779;BME280;43608;49.486;9.640;2022-11-20T00:48:50;98210.88;;;0.65;96.24
57779;BME280;43608;49.486;9.640;2022-11-20T00:49:20;98205.53;;;0.59;96.14
57779;BME280;43608;49.486;9.640;2022-11-20T00:49:50;98203.78;;;0.59;96.28
57779;BME280;43608;49.486;9.640;2022-11-20T00:50:21;98214.34;;;0.64;96.02
57779;BME280;43608;49.486;9.640;2022-11-20T00:50:52;98218.69;;;0.65;95.95
57779;BME280;43608;49.486;9.640;2022-11-20T00:51:24;98188.69;;;0.47;96.00
57779;BME280;43608;49.486;9.640;2022-11-20T00:51:55;98204.66;;;0.60;96.15
57779;BME280;43608;49.486;9.640;2022-11-20T00:52:25;98197.56;;;0.54;96.18
57779;BME280;43608;49.486;9.640;2022-11-20T00:52:55;98197.53;;;0.53;95.90
57779;BME280;43608;49.486;9.640;2022-11-20T00:53:26;98207.31;;;0.61;96.03
57779;BME280;43608;49.486;9.640;2022-11-20T00:53:58;98203.81;;;0.61;96.32
57779;BME280;43608;49.486;9.640;2022-11-20T00:54:29;98187.06;;;0.51;96.41
57779;BME280;43608;49.486;9.640;2022-11-20T00:55:00;98200.28;;;0.57;96.12
57779;BME280;43608;49.486;9.640;2022-11-20T00:55:30;98210.97;;;0.68;96.14
57779;BME280;43608;49.486;9.640;2022-11-20T00:56:04;98211.84;;;0.69;96.33
57779;BME280;43608;49.486;9.640;2022-11-20T00:56:34;98195.06;;;0.57;95.99
57779;BME280;43608;49.486;9.640;2022-11-20T00:57:05;98201.16;;;0.59;96.23
57779;BME280;43608;49.486;9.640;2022-11-20T00:57:35;98203.91;;;0.64;95.92
57779;BME280;43608;49.486;9.640;2022-11-20T00:58:05;98174.78;;;0.47;96.16
57779;BME280;43608;49.486;9.640;2022-11-20T00:58:37;98214.50;;;0.70;96.11
57779;BME280;43608;49.486;9.640;2022-11-20T00:59:09;98215.41;;;0.71;96.24
57779;BME280;43608;49.486;9.640;2022-11-20T00:59:39;98206.59;;;0.67;96.19
57779;BME280;43608;49.486;9.640;2022-11-20T01:00:10;98207.47;;;0.68;96.31
57779;BME280;43608;49.486;9.640;2022-11-20T01:00:40;98208.38;;;0.68;95.86
57779;BME280;43608;49.486;9.640;2022-11-20T01:01:12;98214.56;;;0.72;96.01
57779;BME280;43608;49.486;9.640;2022-11-20T01:01:43;98205.72;;;0.67;95.74
57779;BME280;43608;49.486;9.640;2022-11-20T01:02:13;98208.38;;;0.68;95.89
57779;BME280;43608;49.486;9.640;2022-11-20T01:02:45;98214.59;;;0.73;96.00
57779;BME280;43608;49.486;9.640;2022-11-20T01:03:17;98209.28;;;0.70;96.10
57779;BME280;43608;49.486;9.640;2022-11-20T01:03:49;98202.16;;;0.63;95.71
57779;BME280;43608;49.486;9.640;2022-11-20T01:04:19;98208.41;;;0.70;96.25
57779;BME280;43608;49.486;9.640;2022-11-20T01:04:50;98204.97;;;0.71;95.93
57779;BME280;43608;49.486;9.640;2022-11-20T01:05:20;98175.78;;;0.52;96.09
57779;BME280;43608;49.486;9.640;2022-11-20T01:05:50;98182.88;;;0.58;95.76
57779;BME280;43608;49.486;9.640;2022-11-20T01:06:26;98208.47;;;0.73;95.79
57779;BME280;43608;49.486;9.640;2022-11-20T01:06:57;98206.66;;;0.70;96.13
57779;BME280;43608;49.486;9.640;2022-11-20T01:07:27;98202.31;;;0.69;95.74
57779;BME280;43608;49.486;9.640;2022-11-20T01:07:57;98182.00;;;0.57;95.50
57779;BME280;43608;49.486;9.640;2022-11-20T01:08:32;98210.19;;;0.71;96.25
57779;BME280;43608;49.486;9.640;2022-11-20T01:09:10;98195.34;;;0.68;95.88
57779;BME280;43608;49.486;9.640;2022-11-20T01:09:40;98176.72;;;0.56;96.16
57779;BME280;43608;49.486;9.640;2022-11-20T01:10:11;98209.34;;;0.72;96.10
57779;BME280;43608;49.486;9.640;2022-11-20T01:10:42;98198.78;;;0.67;96.28
57779;BME280;43608;49.486;9.640;2022-11-20T01:11:18;98202.31;;;0.69;96.07
57779;BME280;43608;49.486;9.640;2022-11-20T01:11:49;98192.63;;;0.65;96.00
57779;BME280;43608;49.486;9.640;2022-11-20T01:12:19;98197.94;;;0.68;96.39
57779;BME280;43608;49.486;9.640;2022-11-20T01:12:49;98196.03;;;0.62;96.47
57779;BME280;43608;49.486;9.640;2022-11-20T01:13:40;98201.53;;;0.72;96.49
57779;BME280;43608;49.486;9.640;2022-11-20T01:14:14;98205.84;;;0.71;96.68
57779;BME280;43608;49.486;9.640;2022-11-20T01:14:46;98195.34;;;0.68;96.58
57779;BME280;43608;49.486;9.640;2022-11-20T01:15:17;98203.16;;;0.68;96.58
57779;BME280;43608;49.486;9.640;2022-11-20T01:15:47;98200.59;;;0.70;96.52
57779;BME280;43608;49.486;9.640;2022-11-20T01:16:30;98191.72;;;0.63;96.44
57779;BME280;43608;49.486;9.640;2022-11-20T01:17:00;98204.97;;;0.71;96.61
57779;BME280;43608;49.486;9.640;2022-11-20T01:17:31;98197.91;;;0.67;96.40
57779;BME280;43608;49.486;9.640;2022-11-20T01:18:02;98199.66;;;0.68;96.78
57779;BME280;43608;49.486;9.640;2022-11-20T01:18:33;98211.88;;;0.70;96.49
57779;BME280;43608;49.486;9.640;2022-11-20T01:19:05;98206.75;;;0.72;96.70
57779;BME280;43608;49.486;9.640;2022-11-20T01:19:36;98211.06;;;0.71;96.44
57779;BME280;43608;49.486;9.640;2022-11-20T01:20:07;98186.41;;;0.60;96.45
57779;BME280;43608;49.486;9.640;2022-11-20T01:20:37;98190.88;;;0.64;96.49
57779;BME280;43608;49.486;9.640;2022-11-20T01:21:11;98212.88;;;0.74;96.96
57779;BME280;43608;49.486;9.640;2022-11-20T01:21:43;98210.25;;;0.74;96.86
57779;BME280;43608;49.486;9.640;2022-11-20T01:22:14;98197.91;;;0.67;97.06
57779;BME280;43608;49.486;9.640;2022-11-20T01:22:44;98205.94;;;0.74;96.71
57779;BME280;43608;49.486;9.640;2022-11-20T01:23:15;98196.25;;;0.70;97.01
57779;BME280;43608;49.486;9.640;2022-11-20T01:23:46;98195.28;;;0.67;96.78
57779;BME280;43608;49.486;9.640;2022-11-20T01:24:19;98207.69;;;0.75;97.02
57779;BME280;43608;49.486;9.640;2022-11-20T01:24:50;98205.03;;;0.74;96.89
57779;BME280;43608;49.486;9.640;2022-11-20T01:25:20;98198.91;;;0.72;97.21
57779;BME280;43608;49.486;9.640;2022-11-20T01:25:51;98198.94;;;0.73;96.92
57779;BME280;43608;49.486;9.640;2022-11-20T01:26:23;98208.63;;;0.77;96.96
57779;BME280;43608;49.486;9.640;2022-11-20T01:26:54;98185.69;;;0.65;96.99
57779;BME280;43608;49.486;9.640;2022-11-20T01:27:24;98193.75;;;0.75;96.60
57779;BME280;43608;49.486;9.640;2022-11-20T01:27:55;98187.56;;;0.71;96.94
57779;BME280;43608;49.486;9.640;2022-11-20T01:28:25;98176.13;;;0.66;97.11
57779;BME280;43608;49.486;9.640;2022-11-20T01:28:56;98198.19;;;0.77;96.55
57779;BME280;43608;49.486;9.640;2022-11-20T01:29:27;98188.56;;;0.75;96.76
57779;BME280;43608;49.486;9.640;2022-11-20T01:29:57;98201.66;;;0.78;96.51
57779;BME280;43608;49.486;9.640;2022-11-20T01:30:28;98179.66;;;0.67;96.83
57779;BME280;43608;49.486;9.640;2022-11-20T01:30:59;98199.19;;;0.82;96.91
57779;BME280;43608;49.486;9.640;2022-11-20T01:31:34;98205.28;;;0.83;96.36
57779;BME280;43608;49.486;9.640;2022-11-20T01:32:04;98186.78;;;0.74;96.77
57779;BME280;43608;49.486;9.640;2022-11-20T01:32:35;98200.00;;;0.80;96.61
57779;BME280;43608;49.486;9.640;2022-11-20T01:33:05;98193.81;;;0.76;96.79
57779;BME280;43608;49.486;9.640;2022-11-20T01:33:35;98201.81;;;0.82;96.63
57779;BME280;43608;49.486;9.640;2022-11-20T01:34:09;98209.63;;;0.82;96.45
57779;BME280;43608;49.486;9.640;2022-11-20T01:34:40;98203.53;;;0.82;96.54
57779;BME280;43608;49.486;9.640;2022-11-20T01:35:10;98192.84;;;0.73;96.40
57779;BME280;43608;49.486;9.640;2022-11-20T01:35:41;98195.53;;;0.76;96.39
57779;BME280;43608;49.486;9.640;2022-11-20T01:36:12;98176.97;;;0.65;96.67
57779;BME280;43608;49.486;9.640;2022-11-20T01:36:43;98195.53;;;0.76;96.55
57779;BME280;43608;49.486;9.640;2022-11-20T01:37:13;98202.56;;;0.78;96.16
57779;BME280;43608;49.486;9.640;2022-11-20T01:37:44;98200.88;;;0.80;96.64
57779;BME280;43608;49.486;9.640;2022-11-20T01:38:17;98206.06;;;0.80;96.64
57779;BME280;43608;49.486;9.640;2022-11-20T01:38:51;98197.25;;;0.75;96.49
57779;BME280;43608;49.486;9.640;2022-11-20T01:39:24;98206.16;;;0.82;96.44
57779;BME280;43608;49.486;9.640;2022-11-20T01:39:54;98205.19;;;0.78;96.35
57779;BME280;43608;49.486;9.640;2022-11-20T01:40:25;98186.78;;;0.74;96.57
57779;BME280;43608;49.486;9.640;2022-11-20T01:40:55;98205.22;;;0.80;96.73
57779;BME280;43608;49.486;9.640;2022-11-20T01:41:28;98185.91;;;0.73;96.76
57779;BME280;43608;49.486;9.640;2022-11-20T01:42:17;98195.56;;;0.77;96.55
57779;BME280;43608;49.486;9.640;2022-11-20T01:43:14;98186.69;;;0.69;96.66
57779;BME280;43608;49.486;9.640;2022-11-20T01:43:52;98194.63;;;0.75;96.38
57779;BME280;43608;49.486;9.640;2022-11-20T01:46:24;98201.81;;;0.82;96.45
57779;BME280;43608;49.486;9.640;2022-11-20T01:47:03;98197.44;;;0.83;96.43
57779;BME280;43608;49.486;9.640;2022-11-20T01:47:40;98192.09;;;0.77;96.02
57779;BME280;43608;49.486;9.640;2022-11-20T01:48:13;98185.19;;;0.79;96.17
57779;BME280;43608;49.486;9.640;2022-11-20T01:48:51;98187.78;;;0.79;95.96
57779;BME280;43608;49.486;9.640;2022-11-20T01:49:38;98182.41;;;0.73;96.00
57779;BME280;43608;49.486;9.640;2022-11-20T01:50:44;98184.16;;;0.74;96.09
57779;BME280;43608;49.486;9.640;2022-11-20T01:51:43;98197.53;;;0.85;96.50
57779;BME280;43608;49.486;9.640;2022-11-20T01:52:45;98194.84;;;0.83;96.20
57779;BME280;43608;49.486;9.640;2022-11-20T01:53:22;98186.16;;;0.82;96.11
57779;BME280;43608;49.486;9.640;2022-11-20T01:53:55;98178.25;;;0.79;96.20
57779;BME280;43608;49.486;9.640;2022-11-20T01:54:35;98187.94;;;0.85;96.07
57779;BME280;43608;49.486;9.640;2022-11-20T01:55:16;98164.94;;;0.70;96.04
57779;BME280;43608;49.486;9.640;2022-11-20T01:55:52;98191.41;;;0.84;95.84
57779;BME280;43608;49.486;9.640;2022-11-20T01:56:23;98192.31;;;0.85;95.79
57779;BME280;43608;49.486;9.640;2022-11-20T01:56:55;98170.13;;;0.69;96.17
57779;BME280;43608;49.486;9.640;2022-11-20T01:57:29;98171.94;;;0.71;95.90
57779;BME280;43608;49.486;9.640;2022-11-20T01:58:02;98195.75;;;0.84;95.84
57779;BME280;43608;49.486;9.640;2022-11-20T01:58:39;98194.00;;;0.84;96.22
57779;BME280;43608;49.486;9.640;2022-11-20T01:59:14;98163.09;;;0.66;96.20
57779;BME280;43608;49.486;9.640;2022-11-20T01:59:51;98184.41;;;0.83;96.00
57779;BME280;43608;49.486;9.640;2022-11-20T02:00:24;98184.28;;;0.77;96.18
57779;BME280;43608;49.486;9.640;2022-11-20T02:00:55;98178.19;;;0.78;96.20
57779;BME280;43608;49.486;9.640;2022-11-20T02:01:25;98178.25;;;0.79;95.77
57779;BME280;43608;49.486;9.640;2022-11-20T02:01:55;98194.00;;;0.84;95.83
57779;BME280;43608;49.486;9.640;2022-11-20T02:02:27;98198.38;;;0.85;96.29
57779;BME280;43608;49.486;9.640;2022-11-20T02:03:00;98204.47;;;0.86;96.39
57779;BME280;43608;49.486;9.640;2022-11-20T02:03:33;98168.41;;;0.69;96.09
57779;BME280;43608;49.486;9.640;2022-11-20T02:04:03;98171.06;;;0.71;95.90
57779;BME280;43608;49.486;9.640;2022-11-20T02:04:34;98173.84;;;0.77;96.19
57779;BME280;43608;49.486;9.640;2022-11-20T02:05:21;98194.91;;;0.85;95.86
57779;BME280;43608;49.486;9.640;2022-11-20T02:06:12;98192.31;;;0.85;96.36
57779;BME280;43608;49.486;9.640;2022-11-20T02:06:49;98178.94;;;0.74;96.44
57779;BME280;43608;49.486;9.640;2022-11-20T02:07:21;98200.13;;;0.85;96.26
57779;BME280;43608;49.486;9.640;2022-11-20T02:07:54;98182.59;;;0.80;96.31
57779;BME280;43608;49.486;9.640;2022-11-20T02:08:25;98174.53;;;0.71;96.46
57779;BME280;43608;49.486;9.640;2022-11-20T02:08:56;98183.53;;;0.82;96.05
57779;BME280;43608;49.486;9.640;2022-11-20T02:09:27;98171.16;;;0.75;96.16
57779;BME280;43608;49.486;9.640;2022-11-20T02:09:57;98169.47;;;0.76;96.04
57779;BME280;43608;49.486;9.640;2022-11-20T02:10:28;98172.97;;;0.78;96.06
57779;BME280;43608;49.486;9.640;2022-11-20T02:10:59;98182.78;;;0.87;96.56
57779;BME280;43608;49.486;9.640;2022-11-20T02:11:30;98172.16;;;0.80;96.59
57779;BME280;43608;49.486;9.640;2022-11-20T02:12:01;98173.94;;;0.81;96.31
57779;BME280;43608;49.486;9.640;2022-11-20T02:12:31;98178.38;;;0.86;96.43
57779;BME280;43608;49.486;9.640;2022-11-20T02:13:21;98163.31;;;0.74;96.42
57779;BME280;43608;49.486;9.640;2022-11-20T02:14:10;98177.53;;;0.85;96.41
57779;BME280;43608;49.486;9.640;2022-11-20T02:14:40;98184.53;;;0.88;96.11
57779;BME280;43608;49.486;9.640;2022-11-20T02:15:11;98182.69;;;0.84;95.94
57779;BME280;43608;49.486;9.640;2022-11-20T02:15:42;98181.97;;;0.89;96.07
57779;BME280;43608;49.486;9.640;2022-11-20T02:16:16;98174.78;;;0.80;96.36
57779;BME280;43608;49.486;9.640;2022-11-20T02:16:48;98184.50;;;0.86;95.90
57779;BME280;43608;49.486;9.640;2022-11-20T02:17:20;98180.19;;;0.88;96.38
57779;BME280;43608;49.486;9.640;2022-11-20T02:17:50;98159.84;;;0.75;96.34
57779;BME280;43608;49.486;9.640;2022-11-20T02:18:21;98166.16;;;0.83;95.81
57779;BME280;43608;49.486;9.640;2022-11-20T02:18:53;98139.66;;;0.68;96.00
57779;BME280;43608;49.486;9.640;2022-11-20T02:19:28;98186.34;;;0.90;96.26
57779;BME280;43608;49.486;9.640;2022-11-20T02:20:00;98174.91;;;0.85;95.87
57779;BME280;43608;49.486;9.640;2022-11-20T02:20:30;98172.34;;;0.87;96.30
57779;BME280;43608;49.486;9.640;2022-11-20T02:21:07;98153.88;;;0.79;95.74
57779;BME280;43608;49.486;9.640;2022-11-20T02:22:17;98169.78;;;0.90;96.03
57779;BME280;43608;49.486;9.640;2022-11-20T02:24:23;98164.44;;;0.84;95.87
57779;BME280;43608;49.486;9.640;2022-11-20T02:24:54;98159.13;;;0.80;95.83
57779;BME280;43608;49.486;9.640;2022-11-20T02:25:26;98181.16;;;0.92;95.84
57779;BME280;43608;49.486;9.640;2022-11-20T02:25:58;98176.81;;;0.92;95.92
57779;BME280;43608;49.486;9.640;2022-11-20T02:27:02;98185.53;;;0.93;95.80
57779;BME280;43608;49.486;9.640;2022-11-20T02:27:34;98166.94;;;0.80;96.16
57779;BME280;43608;49.486;9.640;2022-11-20T02:28:05;98189.94;;;0.94;96.05
57779;BME280;43608;49.486;9.640;2022-11-20T02:28:35;98166.13;;;0.81;95.80
57779;BME280;43608;49.486;9.640;2022-11-20T02:29:06;98178.34;;;0.84;95.70
57779;BME280;43608;49.486;9.640;2022-11-20T02:29:48;98170.50;;;0.82;95.82
57779;BME280;43608;49.486;9.640;2022-11-20T02:30:20;98193.41;;;0.94;96.08
57779;BME280;43608;49.486;9.640;2022-11-20T02:30:50;98193.41;;;0.94;95.65
57779;BME280;43608;49.486;9.640;2022-11-20T02:31:21;98189.00;;;0.92;95.89
57779;BME280;43608;49.486;9.640;2022-11-20T02:31:51;98176.69;;;0.86;95.72
57779;BME280;43608;49.486;9.640;2022-11-20T02:32:30;98195.19;;;0.95;95.86
57779;BME280;43608;49.486;9.640;2022-11-20T02:33:00;98202.09;;;0.95;95.91
57779;BME280;43608;49.486;9.640;2022-11-20T02:33:31;98187.19;;;0.89;95.79
57779;BME280;43608;49.486;9.640;2022-11-20T02:34:01;98195.97;;;0.93;95.67
57779;BME280;43608;49.486;9.640;2022-11-20T02:34:32;98206.47;;;0.96;96.00
57779;BME280;43608;49.486;9.640;2022-11-20T02:35:56;98184.47;;;0.85;95.80
57779;BME280;43608;49.486;9.640;2022-11-20T02:36:27;98185.41;;;0.88;96.20
57779;BME280;43608;49.486;9.640;2022-11-20T02:36:59;98196.09;;;0.97;96.20
57779;BME280;43608;49.486;9.640;2022-11-20T02:37:32;98171.25;;;0.78;95.83
57779;BME280;43608;49.486;9.640;2022-11-20T02:38:04;98178.38;;;0.86;95.82
57779;BME280;43608;49.486;9.640;2022-11-20T02:38:35;98174.88;;;0.84;96.18
57779;BME280;43608;49.486;9.640;2022-11-20T02:39:05;98190.75;;;0.93;96.05
57779;BME280;43608;49.486;9.640;2022-11-20T02:39:36;98189.81;;;0.91;96.20
57779;BME280;43608;49.486;9.640;2022-11-20T02:40:07;98200.44;;;0.97;95.96
57779;BME280;43608;49.486;9.640;2022-11-20T02:40:37;98199.59;;;0.98;96.40
57779;BME280;43608;49.486;9.640;2022-11-20T02:41:07;98186.41;;;0.93;96.01
57779;BME280;43608;49.486;9.640;2022-11-20T02:41:38;98134.25;;;0.60;96.22
57779;BME280;43608;49.486;9.640;2022-11-20T02:42:09;98171.38;;;0.83;96.16
57779;BME280;43608;49.486;9.640;2022-11-20T02:42:39;98177.56;;;0.87;95.81
57779;BME280;43608;49.486;9.640;2022-11-20T02:43:10;98187.38;;;0.97;95.92
57779;BME280;43608;49.486;9.640;2022-11-20T02:43:41;98189.84;;;0.92;95.78
57779;BME280;43608;49.486;9.640;2022-11-20T02:44:11;98189.81;;;0.91;96.11
57779;BME280;43608;49.486;9.640;2022-11-20T02:44:42;98180.19;;;0.88;95.79
57779;BME280;43608;49.486;9.640;2022-11-20T02:45:13;98182.78;;;0.87;96.20
57779;BME280;43608;49.486;9.640;2022-11-20T02:45:43;98182.84;;;0.90;96.14
57779;BME280;43608;49.486;9.640;2022-11-20T02:46:13;98115.72;;;0.49;96.10
57779;BME280;43608;49.486;9.640;2022-11-20T02:46:44;98185.50;;;0.91;96.25
57779;BME280;43608;49.486;9.640;2022-11-20T02:47:14;98124.56;;;0.56;95.78
57779;BME280;43608;49.486;9.640;2022-11-20T02:47:44;98190.81;;;0.94;96.03
57779;BME280;43608;49.486;9.640;2022-11-20T02:48:15;98161.66;;;0.77;95.73
57779;BME280;43608;49.486;9.640;2022-11-20T02:48:45;98195.19;;;0.95;95.83
57779;BME280;43608;49.486;9.640;2022-11-20T02:49:15;98172.38;;;0.88;96.27
57779;BME280;43608;49.486;9.640;2022-11-20T02:49:46;98184.66;;;0.92;96.14
57779;BME280;43608;49.486;9.640;2022-11-20T02:50:17;98184.75;;;0.95;95.90
57779;BME280;43608;49.486;9.640;2022-11-20T02:50:48;98186.31;;;0.89;95.95
57779;BME280;43608;49.486;9.640;2022-11-20T02:51:18;98179.28;;;0.86;96.00
57779;BME280;43608;49.486;9.640;2022-11-20T02:51:48;98173.16;;;0.86;96.04
57779;BME280;43608;49.486;9.640;2022-11-20T02:52:19;98182.84;;;0.90;96.23
57779;BME280;43608;49.486;9.640;2022-11-20T02:52:49;98182.91;;;0.91;96.25
57779;BME280;43608;49.486;9.640;2022-11-20T02:53:19;98162.50;;;0.76;96.38
57779;BME280;43608;49.486;9.640;2022-11-20T02:53:50;98174.03;;;0.85;96.45
57779;BME280;43608;49.486;9.640;2022-11-20T02:54:20;98173.09;;;0.82;96.31
57779;BME280;43608;49.486;9.640;2022-11-20T02:54:51;98156.41;;;0.76;96.30
57779;BME280;43608;49.486;9.640;2022-11-20T02:55:22;98113.13;;;0.51;96.24
57779;BME280;43608;49.486;9.640;2022-11-20T02:55:52;98157.31;;;0.78;96.15
57779;BME280;43608;49.486;9.640;2022-11-20T02:56:22;98182.03;;;0.92;96.44
57779;BME280;43608;49.486;9.640;2022-11-20T02:56:53;98168.88;;;0.88;96.10
57779;BME280;43608;49.486;9.640;2022-11-20T02:57:23;98152.88;;;0.74;96.45
57779;BME280;43608;49.486;9.640;2022-11-20T02:57:54;98166.25;;;0.86;96.18
57779;BME280;43608;49.486;9.640;2022-11-20T02:58:24;98171.53;;;0.89;96.20